createdAt,value
2022-10-15T00:01:25.499Z,96076.44
2022-10-15T00:03:52.425Z,96075.91
2022-10-15T00:06:21.268Z,96078.31
2022-10-15T00:08:48.556Z,96077.03
2022-10-15T00:11:22.294Z,96077.72
2022-10-15T00:13:50.190Z,96074.66
2022-10-15T00:16:21.034Z,96064.38
2022-10-15T00:18:48.560Z,96076.44
2022-10-15T00:21:18.123Z,96066.91
2022-10-15T00:23:45.697Z,96070.00
2022-10-15T00:26:16.643Z,96067.13
2022-10-15T00:28:43.930Z,96067.13
2022-10-15T00:31:14.383Z,96070.72
2022-10-15T00:33:42.056Z,96070.34
2022-10-15T00:36:19.862Z,96070.47
2022-10-15T00:38:46.753Z,96047.47
2022-10-15T00:41:18.533Z,96048.88
2022-10-15T00:43:48.283Z,96037.16
2022-10-15T00:46:38.191Z,96037.94
2022-10-15T00:49:19.211Z,96039.06
2022-10-15T00:52:20.266Z,96033.97
2022-10-15T00:54:59.827Z,96025.94
2022-10-15T00:57:27.075Z,96026.16
2022-10-15T00:59:58.807Z,96019.16
2022-10-15T01:02:25.943Z,96016.75
2022-10-15T01:04:53.566Z,96003.84
2022-10-15T01:07:20.392Z,96009.16
2022-10-15T01:09:47.462Z,96003.38
2022-10-15T01:12:45.429Z,96007.75
2022-10-15T01:15:30.720Z,96007.69
2022-10-15T01:18:00.050Z,95998.28
2022-10-15T01:20:57.320Z,95992.78
2022-10-15T01:23:35.949Z,95989.56
2022-10-15T01:26:39.035Z,95995.31
2022-10-15T01:29:34.482Z,95997.03
2022-10-15T01:32:12.887Z,95991.66
2022-10-15T01:35:29.687Z,95989.56
2022-10-15T01:38:25.455Z,95990.84
2022-10-15T01:41:15.964Z,95985.53
2022-10-15T01:43:57.990Z,95976.34
2022-10-15T01:46:40.124Z,95966.47
2022-10-15T01:49:09.058Z,95965.75
2022-10-15T01:51:38.546Z,95961.88
2022-10-15T01:54:09.617Z,95964.88
2022-10-15T01:56:38.320Z,95953.97
2022-10-15T01:59:06.297Z,95960.38
2022-10-15T02:01:33.234Z,95951.97
2022-10-15T02:04:00.543Z,95954.56
2022-10-15T02:06:41.329Z,95962.19
2022-10-15T02:09:31.000Z,95952.50
2022-10-15T02:12:25.476Z,95951.59
2022-10-15T02:15:17.061Z,95955.69
2022-10-15T02:17:45.803Z,95952.13
2022-10-15T02:20:17.692Z,95947.66
2022-10-15T02:22:54.416Z,95935.34
2022-10-15T02:25:24.618Z,95932.94
2022-10-15T02:27:54.298Z,95930.19
2022-10-15T02:30:21.426Z,95927.84
2022-10-15T02:32:54.761Z,95932.19
2022-10-15T02:35:22.716Z,95935.41
2022-10-15T02:37:53.216Z,95932.28
2022-10-15T02:40:27.204Z,95934.03
2022-10-15T02:42:54.456Z,95923.00
2022-10-15T02:45:21.847Z,95920.78
2022-10-15T02:47:48.637Z,95924.06
2022-10-15T02:50:15.534Z,95920.50
2022-10-15T02:52:42.313Z,95913.22
2022-10-15T02:55:09.569Z,95917.91
2022-10-15T02:57:36.363Z,95916.31
2022-10-15T03:00:04.481Z,95906.47
2022-10-15T03:02:31.254Z,95909.78
2022-10-15T03:04:58.022Z,95911.28
2022-10-15T03:07:25.214Z,95902.97
2022-10-15T03:09:52.227Z,95911.28
2022-10-15T03:12:23.127Z,95902.09
2022-10-15T03:14:50.189Z,95907.63
2022-10-15T03:17:17.063Z,95908.72
2022-10-15T03:19:44.205Z,95901.81
2022-10-15T03:22:11.021Z,95903.94
2022-10-15T03:24:37.831Z,95900.69
2022-10-15T03:27:04.618Z,95908.34
2022-10-15T03:29:31.427Z,95899.69
2022-10-15T03:31:58.260Z,95895.84
2022-10-15T03:34:25.132Z,95902.03
2022-10-15T03:36:51.897Z,95900.75
2022-10-15T03:39:18.783Z,95896.91
2022-10-15T03:41:45.675Z,95896.91
2022-10-15T03:44:12.954Z,95907.50
2022-10-15T03:46:39.920Z,95900.91
2022-10-15T03:49:06.803Z,95900.13
2022-10-15T03:51:33.580Z,95902.69
2022-10-15T03:54:00.387Z,95899.16
2022-10-15T03:56:27.189Z,95900.28
2022-10-15T03:58:53.968Z,95905.56
2022-10-15T04:01:20.842Z,95904.00
2022-10-15T04:03:47.714Z,95903.34
2022-10-15T04:06:14.568Z,95887.59
2022-10-15T04:08:41.539Z,95891.47
2022-10-15T04:11:08.428Z,95899.97
2022-10-15T04:13:35.218Z,95898.53
2022-10-15T04:16:05.560Z,95897.00
2022-10-15T04:18:32.917Z,95888.41
2022-10-15T04:21:00.891Z,95886.50
2022-10-15T04:23:28.097Z,95888.09
2022-10-15T04:25:59.172Z,95888.59
2022-10-15T04:28:26.155Z,95888.59
2022-10-15T04:31:00.997Z,95888.09
2022-10-15T04:33:28.278Z,95886.97
2022-10-15T04:36:08.062Z,95886.00
2022-10-15T04:38:35.308Z,95876.50
2022-10-15T04:41:12.922Z,95882.81
2022-10-15T04:43:40.654Z,95876.44
2022-10-15T04:46:08.970Z,95889.28
2022-10-15T04:48:40.454Z,95885.03
2022-10-15T04:51:12.995Z,95893.56
2022-10-15T04:53:40.415Z,95888.72
2022-10-15T04:56:15.543Z,95891.63
2022-10-15T04:58:43.320Z,95880.63
2022-10-15T05:01:13.912Z,95889.38
2022-10-15T05:03:45.071Z,95881.00
2022-10-15T05:06:19.934Z,95880.38
2022-10-15T05:08:48.247Z,95886.66
2022-10-15T05:11:17.763Z,95880.56
2022-10-15T05:13:44.604Z,95881.66
2022-10-15T05:16:21.310Z,95888.56
2022-10-15T05:18:51.509Z,95883.75
2022-10-15T05:21:19.510Z,95884.47
2022-10-15T05:23:47.236Z,95893.44
2022-10-15T05:26:20.468Z,95895.13
2022-10-15T05:28:47.904Z,95896.59
2022-10-15T05:31:19.444Z,95895.31
2022-10-15T05:33:51.725Z,95897.41
2022-10-15T05:36:29.642Z,95902.84
2022-10-15T05:39:00.220Z,95905.09
2022-10-15T05:41:28.069Z,95904.75
2022-10-15T05:43:58.028Z,95904.28
2022-10-15T05:46:25.362Z,95916.53
2022-10-15T05:48:55.137Z,95917.50
2022-10-15T05:51:22.922Z,95918.78
2022-10-15T05:53:53.262Z,95925.16
2022-10-15T05:56:20.542Z,95923.97
2022-10-15T05:58:47.349Z,95924.06
2022-10-15T06:01:14.597Z,95926.84
2022-10-15T06:03:42.357Z,95931.72
2022-10-15T06:06:21.317Z,95937.47
2022-10-15T06:08:49.077Z,95941.47
2022-10-15T06:11:16.828Z,95937.72
2022-10-15T06:13:44.763Z,95937.16
2022-10-15T06:16:14.767Z,95941.91
2022-10-15T06:18:43.475Z,95947.59
2022-10-15T06:21:11.648Z,95941.38
2022-10-15T06:23:38.640Z,95956.78
2022-10-15T06:26:08.076Z,95961.00
2022-10-15T06:28:36.526Z,95957.13
2022-10-15T06:31:04.000Z,95960.69
2022-10-15T06:33:31.815Z,95957.00
2022-10-15T06:36:08.558Z,95977.38
2022-10-15T06:38:36.548Z,95976.41
2022-10-15T06:41:09.266Z,95978.34
2022-10-15T06:43:36.348Z,95987.38
2022-10-15T06:46:05.572Z,95995.16
2022-10-15T06:48:33.054Z,95996.66
2022-10-15T06:51:01.860Z,95994.22
2022-10-15T06:53:30.341Z,96002.88
2022-10-15T06:56:04.607Z,96004.19
2022-10-15T06:58:32.154Z,96015.47
2022-10-15T07:01:04.522Z,96020.84
2022-10-15T07:03:31.798Z,96014.13
2022-10-15T07:06:03.867Z,96018.53
2022-10-15T07:08:30.721Z,96020.91
2022-10-15T07:10:57.535Z,96028.81
2022-10-15T07:13:24.378Z,96022.94
2022-10-15T07:15:54.014Z,96027.19
2022-10-15T07:18:21.097Z,96038.69
2022-10-15T07:20:48.094Z,96035.75
2022-10-15T07:23:15.146Z,96037.13
2022-10-15T07:25:42.208Z,96043.06
2022-10-15T07:28:09.069Z,96042.97
2022-10-15T07:30:35.912Z,96053.72
2022-10-15T07:33:02.835Z,96054.75
2022-10-15T07:35:29.618Z,96056.66
2022-10-15T07:37:56.449Z,96055.56
2022-10-15T07:40:23.250Z,96064.28
2022-10-15T07:42:57.147Z,96064.84
2022-10-15T07:45:25.590Z,96073.38
2022-10-15T07:47:52.937Z,96063.59
2022-10-15T07:50:20.959Z,96069.28
2022-10-15T07:52:47.877Z,96074.47
2022-10-15T07:55:15.089Z,96082.00
2022-10-15T07:57:41.884Z,96081.63
2022-10-15T08:00:09.707Z,96084.72
2022-10-15T08:02:36.486Z,96079.69
2022-10-15T08:05:03.528Z,96093.03
2022-10-15T08:07:30.387Z,96088.75
2022-10-15T08:09:57.170Z,96088.84
2022-10-15T08:12:24.290Z,96088.22
2022-10-15T08:14:51.215Z,96085.38
2022-10-15T08:17:18.023Z,96092.31
2022-10-15T08:19:45.153Z,96102.50
2022-10-15T08:22:12.694Z,96104.81
2022-10-15T08:24:39.481Z,96101.72
2022-10-15T08:27:06.310Z,96109.03
2022-10-15T08:29:33.222Z,96127.22
2022-10-15T08:31:59.980Z,96115.28
2022-10-15T08:34:26.837Z,96130.53
2022-10-15T08:36:53.614Z,96134.34
2022-10-15T08:39:20.387Z,96142.28
2022-10-15T08:41:59.704Z,96136.03
2022-10-15T08:44:38.480Z,96137.13
2022-10-15T08:47:29.052Z,96147.47
2022-10-15T08:49:59.282Z,96144.78
2022-10-15T08:52:47.704Z,96160.97
2022-10-15T08:58:08.146Z,96163.84
2022-10-15T09:00:42.242Z,96156.44
2022-10-15T09:03:29.840Z,96158.34
2022-10-15T09:06:36.438Z,96170.28
2022-10-15T09:09:22.011Z,96164.75
2022-10-15T09:11:59.607Z,96178.50
2022-10-15T09:14:31.957Z,96179.78
2022-10-15T09:17:05.312Z,96174.16
2022-10-15T09:19:34.907Z,96178.59
2022-10-15T09:22:02.810Z,96184.84
2022-10-15T09:24:31.456Z,96177.56
2022-10-15T09:27:11.259Z,96179.06
2022-10-15T09:30:05.157Z,96186.97
2022-10-15T09:32:55.848Z,96188.34
2022-10-15T09:35:55.996Z,96195.59
2022-10-15T09:38:47.212Z,96196.84
2022-10-15T09:41:38.066Z,96198.28
2022-10-15T09:44:11.129Z,96193.81
2022-10-15T09:46:46.658Z,96188.44
2022-10-15T09:49:21.472Z,96177.09
2022-10-15T09:52:38.140Z,96183.44
2022-10-15T09:55:49.602Z,96173.88
2022-10-15T09:58:25.936Z,96169.78
2022-10-15T10:01:06.761Z,96181.88
2022-10-15T10:03:36.703Z,96175.31
2022-10-15T10:06:14.535Z,96175.47
2022-10-15T10:08:53.492Z,96166.63
2022-10-15T10:11:22.290Z,96183.72
2022-10-15T10:13:48.966Z,96171.59
2022-10-15T10:16:18.343Z,96171.47
2022-10-15T10:19:01.949Z,96171.31
2022-10-15T10:21:33.580Z,96170.88
2022-10-15T10:24:20.557Z,96180.75
2022-10-15T10:26:48.244Z,96172.44
2022-10-15T10:29:33.471Z,96181.34
2022-10-15T10:32:18.917Z,96178.41
2022-10-15T10:34:51.516Z,96185.72
2022-10-15T10:37:19.757Z,96192.69
2022-10-15T10:39:54.134Z,96201.69
2022-10-15T10:42:32.132Z,96195.41
2022-10-15T10:45:23.109Z,96201.47
2022-10-15T10:47:50.248Z,96203.59
2022-10-15T10:50:34.529Z,96197.16
2022-10-15T10:53:24.803Z,96197.72
2022-10-15T10:55:54.657Z,96193.44
2022-10-15T10:58:26.403Z,96200.63
2022-10-15T11:00:55.601Z,96202.00
2022-10-15T11:03:37.481Z,96200.09
2022-10-15T11:06:21.894Z,96204.34
2022-10-15T11:09:42.332Z,96199.16
2022-10-15T11:12:43.273Z,96186.06
2022-10-15T11:15:40.093Z,96190.19
2022-10-15T11:19:06.222Z,96205.25
2022-10-15T11:22:22.053Z,96194.66
2022-10-15T11:25:12.850Z,96203.66
2022-10-15T11:28:05.466Z,96190.28
2022-10-15T11:31:04.129Z,96199.88
2022-10-15T11:34:11.614Z,96187.59
2022-10-15T11:37:09.064Z,96180.78
2022-10-15T11:39:56.583Z,96179.09
2022-10-15T11:43:07.569Z,96188.91
2022-10-15T11:46:13.786Z,96173.00
2022-10-15T11:49:25.186Z,96171.03
2022-10-15T11:52:07.270Z,96178.19
2022-10-15T11:54:45.558Z,96170.28
2022-10-15T11:57:17.077Z,96174.97
2022-10-15T12:00:11.754Z,96173.56
2022-10-15T12:02:39.995Z,96160.84
2022-10-15T12:05:15.346Z,96158.72
2022-10-15T12:07:50.099Z,96161.97
2022-10-15T12:10:43.957Z,96161.59
2022-10-15T12:13:22.637Z,96160.13
2022-10-15T12:16:14.289Z,96158.78
2022-10-15T12:18:52.448Z,96155.97
2022-10-15T12:21:34.949Z,96151.91
2022-10-15T12:24:03.716Z,96157.19
2022-10-15T12:26:33.691Z,96163.44
2022-10-15T12:29:16.667Z,96157.09
2022-10-15T12:31:56.340Z,96156.75
2022-10-15T12:34:43.035Z,96158.09
2022-10-15T12:37:18.761Z,96162.34
2022-10-15T12:39:52.298Z,96151.38
2022-10-15T12:42:39.681Z,96154.03
2022-10-15T12:45:20.745Z,96161.13
2022-10-15T12:47:57.030Z,96154.38
2022-10-15T12:50:27.399Z,96162.72
2022-10-15T12:53:07.095Z,96162.94
2022-10-15T12:55:35.031Z,96161.28
2022-10-15T12:58:46.894Z,96153.38
2022-10-15T13:01:19.572Z,96156.75
2022-10-15T13:03:49.438Z,96144.28
2022-10-15T13:06:22.461Z,96153.31
2022-10-15T13:08:56.748Z,96150.31
2022-10-15T13:11:32.881Z,96151.91
2022-10-15T13:14:28.093Z,96153.22
2022-10-15T13:16:55.793Z,96161.94
2022-10-15T13:19:27.788Z,96160.75
2022-10-15T13:22:04.422Z,96165.19
2022-10-15T13:24:45.476Z,96167.25
2022-10-15T13:27:39.801Z,96151.34
2022-10-15T13:30:16.084Z,96162.81
2022-10-15T13:32:52.242Z,96159.66
2022-10-15T13:35:32.283Z,96166.38
2022-10-15T13:38:00.569Z,96156.50
2022-10-15T13:40:30.128Z,96169.03
2022-10-15T13:43:24.753Z,96165.25
2022-10-15T13:45:57.334Z,96168.94
2022-10-15T13:48:31.552Z,96163.47
2022-10-15T13:51:04.806Z,96163.84
2022-10-15T13:53:35.970Z,96152.38
2022-10-15T13:56:27.967Z,96149.25
2022-10-15T13:58:55.676Z,96155.03
2022-10-15T14:01:24.749Z,96135.50
2022-10-15T14:03:53.680Z,96154.41
2022-10-15T14:06:24.663Z,96140.00
2022-10-15T14:08:55.708Z,96141.50
2022-10-15T14:11:23.474Z,96147.22
2022-10-15T14:13:53.332Z,96151.75
2022-10-15T14:16:46.244Z,96149.53
2022-10-15T14:19:20.589Z,96154.31
2022-10-15T14:21:51.988Z,96154.38
2022-10-15T14:24:40.148Z,96143.03
2022-10-15T14:27:12.788Z,96141.16
2022-10-15T14:29:46.308Z,96147.66
2022-10-15T14:32:27.042Z,96135.50
2022-10-15T14:35:08.675Z,96146.22
2022-10-15T14:37:41.325Z,96152.38
2022-10-15T14:40:11.085Z,96150.09
2022-10-15T14:42:46.057Z,96145.50
2022-10-15T14:45:20.948Z,96139.31
2022-10-15T14:48:09.272Z,96141.31
2022-10-15T14:50:42.418Z,96138.13
2022-10-15T14:53:16.859Z,96143.31
2022-10-15T14:55:48.885Z,96132.91
2022-10-15T14:58:21.704Z,96142.78
2022-10-15T15:01:01.848Z,96143.72
2022-10-15T15:03:42.086Z,96146.88
2022-10-15T15:06:09.707Z,96143.31
2022-10-15T15:08:36.620Z,96133.22
2022-10-15T15:11:06.577Z,96137.28
2022-10-15T15:13:40.245Z,96141.63
2022-10-15T15:16:10.102Z,96147.34
2022-10-15T15:18:36.889Z,96143.19
2022-10-15T15:21:07.334Z,96154.22
2022-10-15T15:23:34.793Z,96143.41
2022-10-15T15:26:01.860Z,96143.69
2022-10-15T15:28:29.539Z,96135.88
2022-10-15T15:31:18.125Z,96143.41
2022-10-15T15:33:44.973Z,96146.38
2022-10-15T15:36:18.896Z,96142.88
2022-10-15T15:38:49.762Z,96148.22
2022-10-15T15:41:22.533Z,96163.75
2022-10-15T15:43:49.962Z,96164.56
2022-10-15T15:46:17.533Z,96168.00
2022-10-15T15:48:44.466Z,96173.63
2022-10-15T15:51:30.528Z,96176.03
2022-10-15T15:53:58.554Z,96179.78
2022-10-15T15:56:25.859Z,96173.88
2022-10-15T15:58:52.658Z,96184.84
2022-10-15T16:01:20.369Z,96180.28
2022-10-15T16:03:47.252Z,96183.44
2022-10-15T16:06:14.553Z,96178.06
2022-10-15T16:08:41.350Z,96174.75
2022-10-15T16:11:08.206Z,96173.72
2022-10-15T16:13:35.342Z,96175.34
2022-10-15T16:16:02.380Z,96173.72
2022-10-15T16:18:29.364Z,96178.69
2022-10-15T16:20:56.252Z,96184.00
2022-10-15T16:23:23.073Z,96186.44
2022-10-15T16:25:49.953Z,96184.00
2022-10-15T16:28:16.744Z,96190.69
2022-10-15T16:30:43.539Z,96201.53
2022-10-15T16:33:10.409Z,96195.75
2022-10-15T16:35:37.270Z,96199.22
2022-10-15T16:38:04.286Z,96201.34
2022-10-15T16:40:31.099Z,96204.00
2022-10-15T16:42:58.122Z,96209.59
2022-10-15T16:45:24.912Z,96218.00
2022-10-15T16:47:51.743Z,96220.63
2022-10-15T16:50:18.683Z,96221.56
2022-10-15T16:52:45.477Z,96223.13
2022-10-15T16:55:12.271Z,96221.94
2022-10-15T16:57:39.124Z,96235.75
2022-10-15T17:00:06.604Z,96233.53
2022-10-15T17:02:33.386Z,96241.94
2022-10-15T17:05:00.186Z,96234.78
2022-10-15T17:07:27.530Z,96239.72
2022-10-15T17:09:54.599Z,96245.75
2022-10-15T17:12:21.410Z,96257.09
2022-10-15T17:14:51.634Z,96264.81
2022-10-15T17:17:18.989Z,96260.63
2022-10-15T17:19:45.878Z,96266.81
2022-10-15T17:22:12.661Z,96264.84
2022-10-15T17:24:39.761Z,96271.69
2022-10-15T17:27:06.601Z,96275.97
2022-10-15T17:29:33.880Z,96274.28
2022-10-15T17:32:02.770Z,96278.25
2022-10-15T17:34:29.724Z,96275.25
2022-10-15T17:36:56.873Z,96280.75
2022-10-15T17:39:23.853Z,96290.09
2022-10-15T17:41:51.744Z,96280.91
2022-10-15T17:44:19.335Z,96290.25
2022-10-15T17:46:46.328Z,96297.91
2022-10-15T17:49:18.068Z,96305.09
2022-10-15T17:51:46.048Z,96308.78
2022-10-15T17:54:13.240Z,96300.47
2022-10-15T17:56:40.430Z,96307.34
2022-10-15T17:59:11.497Z,96300.75
2022-10-15T18:01:59.154Z,96310.00
2022-10-15T18:04:30.181Z,96310.25
2022-10-15T18:06:57.177Z,96310.75
2022-10-15T18:09:25.905Z,96314.94
2022-10-15T18:11:52.755Z,96319.44
2022-10-15T18:16:47.287Z,96325.72
2022-10-15T18:19:14.157Z,96322.53
2022-10-15T18:21:41.934Z,96330.75
2022-10-15T18:24:10.658Z,96327.03
2022-10-15T18:26:37.442Z,96321.09
2022-10-15T18:29:05.366Z,96322.69
2022-10-15T18:31:32.204Z,96325.09
2022-10-15T18:33:59.217Z,96321.31
2022-10-15T18:36:29.902Z,96320.19
2022-10-15T18:38:57.898Z,96320.44
2022-10-15T18:41:33.404Z,96325.69
2022-10-15T18:44:07.699Z,96313.28
2022-10-15T18:46:35.199Z,96313.75
2022-10-15T18:49:02.748Z,96316.88
2022-10-15T18:51:30.698Z,96322.19
2022-10-15T18:53:59.402Z,96327.69
2022-10-15T18:56:26.906Z,96328.66
2022-10-15T18:58:53.684Z,96329.47
2022-10-15T19:01:33.865Z,96324.31
2022-10-15T19:04:07.136Z,96329.63
2022-10-15T19:06:38.324Z,96338.91
2022-10-15T19:09:09.657Z,96344.09
2022-10-15T19:11:38.091Z,96334.38
2022-10-15T19:14:04.968Z,96339.44
2022-10-15T19:16:32.125Z,96344.09
2022-10-15T19:19:00.350Z,96340.91
2022-10-15T19:21:27.723Z,96342.53
2022-10-15T19:23:54.682Z,96338.63
2022-10-15T19:26:21.485Z,96339.09
2022-10-15T19:28:50.336Z,96335.25
2022-10-15T19:31:26.866Z,96333.03
2022-10-15T19:33:55.305Z,96335.97
2022-10-15T19:36:24.304Z,96343.84
2022-10-15T19:38:51.601Z,96343.78
2022-10-15T19:41:19.630Z,96349.00
2022-10-15T19:43:46.701Z,96354.75
2022-10-15T19:46:14.025Z,96360.44
2022-10-15T19:48:40.814Z,96360.34
2022-10-15T19:51:08.774Z,96364.53
2022-10-15T19:53:35.637Z,96367.09
2022-10-15T19:56:06.865Z,96357.41
2022-10-15T19:58:35.054Z,96372.41
2022-10-15T20:01:02.802Z,96375.81
2022-10-15T20:03:31.019Z,96377.81
2022-10-15T20:05:58.964Z,96380.91
2022-10-15T20:08:26.124Z,96382.88
2022-10-15T20:10:53.652Z,96386.91
2022-10-15T20:13:23.084Z,96391.88
2022-10-15T20:15:53.551Z,96392.06
2022-10-15T20:18:21.792Z,96392.44
2022-10-15T20:20:49.092Z,96399.22
2022-10-15T20:23:17.699Z,96387.31
2022-10-15T20:25:45.585Z,96387.66
2022-10-15T20:28:14.993Z,96392.63
2022-10-15T20:30:42.661Z,96389.97
2022-10-15T20:33:11.100Z,96389.59
2022-10-15T20:35:40.629Z,96385.31
2022-10-15T20:38:08.669Z,96395.47
2022-10-15T20:40:39.673Z,96407.25
2022-10-15T20:43:06.988Z,96414.75
2022-10-15T20:45:43.464Z,96405.75
2022-10-15T20:48:20.825Z,96408.75
2022-10-15T20:50:49.324Z,96416.56
2022-10-15T20:53:17.092Z,96418.19
2022-10-15T20:55:43.975Z,96419.13
2022-10-15T20:58:11.022Z,96414.59
2022-10-15T21:00:37.877Z,96424.44
2022-10-15T21:03:04.685Z,96424.44
2022-10-15T21:05:31.516Z,96428.47
2022-10-15T21:07:59.816Z,96440.16
2022-10-15T21:10:27.034Z,96432.31
2022-10-15T21:12:53.858Z,96433.59
2022-10-15T21:15:20.721Z,96444.56
2022-10-15T21:17:48.029Z,96441.78
2022-10-15T21:20:15.266Z,96448.63
2022-10-15T21:22:42.055Z,96440.66
2022-10-15T21:25:08.920Z,96442.22
2022-10-15T21:27:35.756Z,96437.53
2022-10-15T21:30:02.553Z,96442.97
2022-10-15T21:32:29.352Z,96447.16
2022-10-15T21:34:56.157Z,96450.03
2022-10-15T21:37:23.284Z,96449.25
2022-10-15T21:39:50.934Z,96462.41
2022-10-15T21:42:17.717Z,96446.25
2022-10-15T21:44:44.673Z,96450.66
2022-10-15T21:47:14.377Z,96450.31
2022-10-15T21:49:42.186Z,96454.59
2022-10-15T21:52:08.989Z,96462.44
2022-10-15T21:54:35.804Z,96458.03
2022-10-15T21:57:02.566Z,96462.44
2022-10-15T21:59:29.477Z,96462.31
2022-10-15T22:01:56.334Z,96461.28
2022-10-15T22:04:23.210Z,96467.03
2022-10-15T22:06:50.000Z,96470.28
2022-10-15T22:09:16.774Z,96479.28
2022-10-15T22:11:43.612Z,96469.59
2022-10-15T22:14:13.285Z,96466.38
2022-10-15T22:16:41.316Z,96483.78
2022-10-15T22:19:10.019Z,96479.28
2022-10-15T22:21:38.511Z,96487.13
2022-10-15T22:24:13.579Z,96486.75
2022-10-15T22:26:44.610Z,96485.69
2022-10-15T22:29:24.997Z,96497.00
2022-10-15T22:31:52.825Z,96491.31
2022-10-15T22:34:20.903Z,96504.59
2022-10-15T22:36:48.134Z,96512.84
2022-10-15T22:39:17.476Z,96504.66
2022-10-15T22:41:47.533Z,96502.53
2022-10-15T22:44:18.860Z,96506.66
2022-10-15T22:46:46.175Z,96504.59
2022-10-15T22:49:14.085Z,96500.47
2022-10-15T22:51:41.872Z,96501.25
2022-10-15T22:54:08.785Z,96506.31
2022-10-15T22:56:36.830Z,96499.41
2022-10-15T22:59:04.440Z,96493.53
2022-10-15T23:01:32.696Z,96498.56
2022-10-15T23:04:05.853Z,96485.19
2022-10-15T23:06:36.573Z,96488.88
2022-10-15T23:09:06.242Z,96484.03
2022-10-15T23:11:39.558Z,96485.13
2022-10-15T23:14:16.908Z,96489.97
2022-10-15T23:16:46.723Z,96495.97
2022-10-15T23:19:18.263Z,96492.25
2022-10-15T23:21:50.977Z,96494.31
2022-10-15T23:24:21.573Z,96508.75
2022-10-15T23:26:48.841Z,96507.13
2022-10-15T23:29:20.041Z,96505.38
2022-10-15T23:31:48.699Z,96498.78
2022-10-15T23:34:19.821Z,96496.38
2022-10-15T23:36:47.191Z,96506.25
2022-10-15T23:39:17.363Z,96486.84
2022-10-15T23:41:44.831Z,96477.13
2022-10-15T23:44:12.601Z,96481.69
2022-10-15T23:46:40.318Z,96490.72
2022-10-15T23:49:07.293Z,96497.84
2022-10-15T23:51:34.793Z,96497.84
2022-10-15T23:54:03.819Z,96505.63
2022-10-15T23:56:31.233Z,96517.69
2022-10-15T23:59:00.382Z,96520.75
